sensor_id;sensor_type;location;lat;lon;timestamp;temperature;humidity
19342;DHT22;9807;48.258;12.690;2023-04-24T00:00:21;11.30;99.90
19342;DHT22;9807;48.258;12.690;2023-04-24T00:02:47;11.40;99.90
19342;DHT22;9807;48.258;12.690;2023-04-24T00:05:16;11.40;99.90
19342;DHT22;9807;48.258;12.690;2023-04-24T00:07:43;11.50;99.90
19342;DHT22;9807;48.258;12.690;2023-04-24T00:10:10;11.50;99.90
19342;DHT22;9807;48.258;12.690;2023-04-24T00:12:36;11.70;99.90
19342;DHT22;9807;48.258;12.690;2023-04-24T00:15:02;11.60;99.90
19342;DHT22;9807;48.258;12.690;2023-04-24T00:17:29;11.60;99.90
19342;DHT22;9807;48.258;12.690;2023-04-24T00:19:55;11.60;99.90
19342;DHT22;9807;48.258;12.690;2023-04-24T00:22:27;11.70;99.90
19342;DHT22;9807;48.258;12.690;2023-04-24T00:24:53;11.70;99.90
19342;DHT22;9807;48.258;12.690;2023-04-24T00:27:19;11.80;99.90
19342;DHT22;9807;48.258;12.690;2023-04-24T00:29:48;11.90;99.90
19342;DHT22;9807;48.258;12.690;2023-04-24T00:32:14;12.10;99.90
19342;DHT22;9807;48.258;12.690;2023-04-24T00:34:40;12.40;99.90
19342;DHT22;9807;48.258;12.690;2023-04-24T00:37:05;12.70;99.90
19342;DHT22;9807;48.258;12.690;2023-04-24T00:39:31;12.90;99.90
19342;DHT22;9807;48.258;12.690;2023-04-24T00:42:00;13.00;99.90
19342;DHT22;9807;48.258;12.690;2023-04-24T00:44:27;13.00;99.90
19342;DHT22;9807;48.258;12.690;2023-04-24T00:46:54;13.20;99.90
19342;DHT22;9807;48.258;12.690;2023-04-24T00:49:21;13.40;99.90
19342;DHT22;9807;48.258;12.690;2023-04-24T00:51:47;13.50;99.90
19342;DHT22;9807;48.258;12.690;2023-04-24T00:54:15;13.60;99.90
19342;DHT22;9807;48.258;12.690;2023-04-24T00:56:42;13.60;99.90
19342;DHT22;9807;48.258;12.690;2023-04-24T00:59:08;13.50;99.90
19342;DHT22;9807;48.258;12.690;2023-04-24T01:01:35;13.50;99.90
19342;DHT22;9807;48.258;12.690;2023-04-24T01:04:01;13.50;99.90
19342;DHT22;9807;48.258;12.690;2023-04-24T01:06:28;13.40;99.90
19342;DHT22;9807;48.258;12.690;2023-04-24T01:08:57;13.30;99.90
19342;DHT22;9807;48.258;12.690;2023-04-24T01:11:28;13.10;99.90
19342;DHT22;9807;48.258;12.690;2023-04-24T01:13:54;12.40;99.90
19342;DHT22;9807;48.258;12.690;2023-04-24T01:16:20;12.10;99.90
19342;DHT22;9807;48.258;12.690;2023-04-24T01:18:46;11.80;99.90
19342;DHT22;9807;48.258;12.690;2023-04-24T01:21:16;11.50;99.90
19342;DHT22;9807;48.258;12.690;2023-04-24T01:23:52;11.40;99.90
19342;DHT22;9807;48.258;12.690;2023-04-24T01:26:18;11.20;99.90
19342;DHT22;9807;48.258;12.690;2023-04-24T01:28:45;11.20;99.90
19342;DHT22;9807;48.258;12.690;2023-04-24T01:31:11;11.10;99.90
19342;DHT22;9807;48.258;12.690;2023-04-24T01:33:41;11.10;99.90
19342;DHT22;9807;48.258;12.690;2023-04-24T01:36:08;11.10;99.90
19342;DHT22;9807;48.258;12.690;2023-04-24T01:38:35;11.00;99.90
19342;DHT22;9807;48.258;12.690;2023-04-24T01:41:00;11.00;99.90
19342;DHT22;9807;48.258;12.690;2023-04-24T01:43:26;11.00;99.90
19342;DHT22;9807;48.258;12.690;2023-04-24T01:45:52;11.00;99.90
19342;DHT22;9807;48.258;12.690;2023-04-24T01:48:18;11.00;99.90
19342;DHT22;9807;48.258;12.690;2023-04-24T01:50:43;11.00;99.90
19342;DHT22;9807;48.258;12.690;2023-04-24T01:53:12;11.00;99.90
19342;DHT22;9807;48.258;12.690;2023-04-24T01:55:38;11.00;99.90
19342;DHT22;9807;48.258;12.690;2023-04-24T01:58:04;11.00;99.90
19342;DHT22;9807;48.258;12.690;2023-04-24T02:00:30;11.00;99.90
19342;DHT22;9807;48.258;12.690;2023-04-24T02:02:55;11.00;99.90
19342;DHT22;9807;48.258;12.690;2023-04-24T02:05:21;11.10;99.90
19342;DHT22;9807;48.258;12.690;2023-04-24T02:07:47;11.10;99.90
19342;DHT22;9807;48.258;12.690;2023-04-24T02:10:13;11.20;99.90
19342;DHT22;9807;48.258;12.690;2023-04-24T02:12:39;11.20;99.90
19342;DHT22;9807;48.258;12.690;2023-04-24T02:15:05;11.30;99.90
19342;DHT22;9807;48.258;12.690;2023-04-24T02:17:31;11.30;99.90
19342;DHT22;9807;48.258;12.690;2023-04-24T02:19:57;11.40;99.90
19342;DHT22;9807;48.258;12.690;2023-04-24T02:22:23;11.30;99.90
19342;DHT22;9807;48.258;12.690;2023-04-24T02:24:51;11.40;99.90
19342;DHT22;9807;48.258;12.690;2023-04-24T02:27:17;11.50;99.90
19342;DHT22;9807;48.258;12.690;2023-04-24T02:29:43;11.60;99.90
19342;DHT22;9807;48.258;12.690;2023-04-24T02:32:08;11.70;99.90
19342;DHT22;9807;48.258;12.690;2023-04-24T02:34:37;11.90;99.90
19342;DHT22;9807;48.258;12.690;2023-04-24T02:37:03;11.90;99.90
19342;DHT22;9807;48.258;12.690;2023-04-24T02:39:29;12.10;99.90
19342;DHT22;9807;48.258;12.690;2023-04-24T02:41:55;12.30;99.90
19342;DHT22;9807;48.258;12.690;2023-04-24T02:44:20;12.40;99.90
19342;DHT22;9807;48.258;12.690;2023-04-24T02:46:47;12.40;99.90
19342;DHT22;9807;48.258;12.690;2023-04-24T02:49:15;12.30;99.90
19342;DHT22;9807;48.258;12.690;2023-04-24T02:51:41;12.30;99.90
19342;DHT22;9807;48.258;12.690;2023-04-24T02:54:08;12.40;99.90
19342;DHT22;9807;48.258;12.690;2023-04-24T02:56:35;12.50;99.90
19342;DHT22;9807;48.258;12.690;2023-04-24T02:59:01;12.70;99.90
19342;DHT22;9807;48.258;12.690;2023-04-24T03:01:27;12.90;99.90
19342;DHT22;9807;48.258;12.690;2023-04-24T03:03:56;13.10;99.90
19342;DHT22;9807;48.258;12.690;2023-04-24T03:06:21;13.40;99.90
19342;DHT22;9807;48.258;12.690;2023-04-24T03:08:48;13.50;99.90
19342;DHT22;9807;48.258;12.690;2023-04-24T03:11:13;13.70;99.90
19342;DHT22;9807;48.258;12.690;2023-04-24T03:13:39;13.80;99.90
19342;DHT22;9807;48.258;12.690;2023-04-24T03:16:05;13.80;99.90
19342;DHT22;9807;48.258;12.690;2023-04-24T03:18:31;13.90;99.90
19342;DHT22;9807;48.258;12.690;2023-04-24T03:20:57;13.90;99.90
19342;DHT22;9807;48.258;12.690;2023-04-24T03:23:22;13.90;99.90
19342;DHT22;9807;48.258;12.690;2023-04-24T03:25:48;13.90;99.90
19342;DHT22;9807;48.258;12.690;2023-04-24T03:28:17;14.00;99.90
19342;DHT22;9807;48.258;12.690;2023-04-24T03:30:42;14.00;99.90
19342;DHT22;9807;48.258;12.690;2023-04-24T03:33:08;14.10;99.90
19342;DHT22;9807;48.258;12.690;2023-04-24T03:35:35;14.00;99.90
19342;DHT22;9807;48.258;12.690;2023-04-24T03:38:01;14.10;99.90
19342;DHT22;9807;48.258;12.690;2023-04-24T03:40:27;14.10;99.90
19342;DHT22;9807;48.258;12.690;2023-04-24T03:42:54;14.10;99.90
19342;DHT22;9807;48.258;12.690;2023-04-24T03:45:22;14.10;99.90
19342;DHT22;9807;48.258;12.690;2023-04-24T03:47:48;14.10;99.90
19342;DHT22;9807;48.258;12.690;2023-04-24T03:50:14;14.20;99.90
19342;DHT22;9807;48.258;12.690;2023-04-24T03:52:40;14.20;99.90
19342;DHT22;9807;48.258;12.690;2023-04-24T03:55:06;14.20;99.90
19342;DHT22;9807;48.258;12.690;2023-04-24T03:57:32;14.20;99.90
19342;DHT22;9807;48.258;12.690;2023-04-24T03:59:57;14.20;99.90
19342;DHT22;9807;48.258;12.690;2023-04-24T04:02:27;14.30;99.90
19342;DHT22;9807;48.258;12.690;2023-04-24T04:04:52;14.30;99.90
19342;DHT22;9807;48.258;12.690;2023-04-24T04:07:18;14.30;99.90
19342;DHT22;9807;48.258;12.690;2023-04-24T04:09:44;14.30;99.90
19342;DHT22;9807;48.258;12.690;2023-04-24T04:12:09;14.40;99.90
19342;DHT22;9807;48.258;12.690;2023-04-24T04:14:35;14.40;99.90
19342;DHT22;9807;48.258;12.690;2023-04-24T04:17:01;14.40;99.90
19342;DHT22;9807;48.258;12.690;2023-04-24T04:19:26;14.40;99.90
19342;DHT22;9807;48.258;12.690;2023-04-24T04:21:52;14.40;99.90
19342;DHT22;9807;48.258;12.690;2023-04-24T04:24:22;14.50;99.90
19342;DHT22;9807;48.258;12.690;2023-04-24T04:26:50;14.50;99.90
19342;DHT22;9807;48.258;12.690;2023-04-24T04:29:17;14.60;99.90
19342;DHT22;9807;48.258;12.690;2023-04-24T04:31:46;14.60;99.90
19342;DHT22;9807;48.258;12.690;2023-04-24T04:34:12;14.60;99.90
19342;DHT22;9807;48.258;12.690;2023-04-24T04:36:38;14.60;99.90
19342;DHT22;9807;48.258;12.690;2023-04-24T04:39:05;14.60;99.90
19342;DHT22;9807;48.258;12.690;2023-04-24T04:41:31;14.50;99.90
19342;DHT22;9807;48.258;12.690;2023-04-24T04:43:57;14.50;99.90
19342;DHT22;9807;48.258;12.690;2023-04-24T04:46:26;14.40;99.90
19342;DHT22;9807;48.258;12.690;2023-04-24T04:48:58;14.40;99.90
19342;DHT22;9807;48.258;12.690;2023-04-24T04:51:28;14.20;99.90
19342;DHT22;9807;48.258;12.690;2023-04-24T04:53:54;13.90;99.90
19342;DHT22;9807;48.258;12.690;2023-04-24T04:56:20;13.60;99.90
19342;DHT22;9807;48.258;12.690;2023-04-24T04:58:46;13.50;99.90
19342;DHT22;9807;48.258;12.690;2023-04-24T05:01:11;13.30;99.90
19342;DHT22;9807;48.258;12.690;2023-04-24T05:03:37;12.70;99.90
19342;DHT22;9807;48.258;12.690;2023-04-24T05:06:06;12.10;99.90
19342;DHT22;9807;48.258;12.690;2023-04-24T05:08:31;12.00;99.90
19342;DHT22;9807;48.258;12.690;2023-04-24T05:10:57;11.80;99.90
19342;DHT22;9807;48.258;12.690;2023-04-24T05:13:23;11.50;99.90
19342;DHT22;9807;48.258;12.690;2023-04-24T05:15:52;11.40;99.90
19342;DHT22;9807;48.258;12.690;2023-04-24T05:18:17;11.40;99.90
19342;DHT22;9807;48.258;12.690;2023-04-24T05:20:46;11.20;99.90
19342;DHT22;9807;48.258;12.690;2023-04-24T05:23:12;11.20;99.90
19342;DHT22;9807;48.258;12.690;2023-04-24T05:25:38;11.00;99.90
19342;DHT22;9807;48.258;12.690;2023-04-24T05:28:07;10.80;99.90
19342;DHT22;9807;48.258;12.690;2023-04-24T05:30:36;10.60;99.90
19342;DHT22;9807;48.258;12.690;2023-04-24T05:33:01;10.50;99.90
19342;DHT22;9807;48.258;12.690;2023-04-24T05:38:26;10.40;99.90
19342;DHT22;9807;48.258;12.690;2023-04-24T05:40:54;10.40;99.90
19342;DHT22;9807;48.258;12.690;2023-04-24T05:43:22;10.40;99.90
19342;DHT22;9807;48.258;12.690;2023-04-24T05:45:51;10.20;99.90
19342;DHT22;9807;48.258;12.690;2023-04-24T05:48:19;10.40;99.90
19342;DHT22;9807;48.258;12.690;2023-04-24T05:50:45;10.30;99.90
19342;DHT22;9807;48.258;12.690;2023-04-24T05:53:15;10.40;99.90
19342;DHT22;9807;48.258;12.690;2023-04-24T05:55:44;10.40;99.90
19342;DHT22;9807;48.258;12.690;2023-04-24T05:58:11;10.40;99.90
19342;DHT22;9807;48.258;12.690;2023-04-24T06:00:38;10.40;99.90
19342;DHT22;9807;48.258;12.690;2023-04-24T06:03:07;10.50;99.90
19342;DHT22;9807;48.258;12.690;2023-04-24T06:05:33;10.50;99.90
19342;DHT22;9807;48.258;12.690;2023-04-24T06:08:03;10.50;99.90
19342;DHT22;9807;48.258;12.690;2023-04-24T06:10:35;10.50;99.90
19342;DHT22;9807;48.258;12.690;2023-04-24T06:13:01;10.50;99.90
19342;DHT22;9807;48.258;12.690;2023-04-24T06:15:32;10.50;99.90
19342;DHT22;9807;48.258;12.690;2023-04-24T06:18:02;10.50;99.90
19342;DHT22;9807;48.258;12.690;2023-04-24T06:20:28;10.50;99.90
19342;DHT22;9807;48.258;12.690;2023-04-24T06:22:57;10.50;99.90
19342;DHT22;9807;48.258;12.690;2023-04-24T06:25:28;10.60;99.90
19342;DHT22;9807;48.258;12.690;2023-04-24T06:27:55;10.60;99.90
19342;DHT22;9807;48.258;12.690;2023-04-24T06:30:21;10.70;99.90
19342;DHT22;9807;48.258;12.690;2023-04-24T06:32:47;10.70;99.90
19342;DHT22;9807;48.258;12.690;2023-04-24T06:35:15;10.70;99.90
19342;DHT22;9807;48.258;12.690;2023-04-24T06:37:42;10.80;99.90
19342;DHT22;9807;48.258;12.690;2023-04-24T06:40:08;10.80;99.90
19342;DHT22;9807;48.258;12.690;2023-04-24T06:42:34;10.80;99.90
19342;DHT22;9807;48.258;12.690;2023-04-24T06:45:01;10.90;99.90
19342;DHT22;9807;48.258;12.690;2023-04-24T06:47:27;11.10;99.90
19342;DHT22;9807;48.258;12.690;2023-04-24T06:49:53;11.20;99.90
19342;DHT22;9807;48.258;12.690;2023-04-24T06:52:19;11.10;99.90
19342;DHT22;9807;48.258;12.690;2023-04-24T06:54:45;11.10;99.90
19342;DHT22;9807;48.258;12.690;2023-04-24T06:57:11;11.10;99.90
19342;DHT22;9807;48.258;12.690;2023-04-24T06:59:37;11.20;99.90
19342;DHT22;9807;48.258;12.690;2023-04-24T07:02:03;11.10;99.90
19342;DHT22;9807;48.258;12.690;2023-04-24T07:04:29;11.20;99.90
19342;DHT22;9807;48.258;12.690;2023-04-24T07:07:00;11.30;99.90
19342;DHT22;9807;48.258;12.690;2023-04-24T07:09:30;11.50;99.90
19342;DHT22;9807;48.258;12.690;2023-04-24T07:11:55;11.60;99.90
19342;DHT22;9807;48.258;12.690;2023-04-24T07:14:22;11.80;99.90
19342;DHT22;9807;48.258;12.690;2023-04-24T07:16:48;11.80;99.90
19342;DHT22;9807;48.258;12.690;2023-04-24T07:19:14;11.80;99.90
19342;DHT22;9807;48.258;12.690;2023-04-24T07:21:40;11.70;99.90
19342;DHT22;9807;48.258;12.690;2023-04-24T07:24:05;11.70;99.90
19342;DHT22;9807;48.258;12.690;2023-04-24T07:26:34;11.70;99.90
19342;DHT22;9807;48.258;12.690;2023-04-24T07:29:00;11.60;99.90
19342;DHT22;9807;48.258;12.690;2023-04-24T07:31:26;11.70;99.90
19342;DHT22;9807;48.258;12.690;2023-04-24T07:33:52;11.80;99.90
19342;DHT22;9807;48.258;12.690;2023-04-24T07:36:17;11.90;99.90
19342;DHT22;9807;48.258;12.690;2023-04-24T07:38:47;11.90;99.90
19342;DHT22;9807;48.258;12.690;2023-04-24T07:41:13;12.20;99.90
19342;DHT22;9807;48.258;12.690;2023-04-24T07:43:42;12.50;99.90
19342;DHT22;9807;48.258;12.690;2023-04-24T07:46:08;12.60;99.90
19342;DHT22;9807;48.258;12.690;2023-04-24T07:48:34;12.70;99.90
19342;DHT22;9807;48.258;12.690;2023-04-24T07:51:00;12.70;99.90
19342;DHT22;9807;48.258;12.690;2023-04-24T07:53:26;12.90;99.90
19342;DHT22;9807;48.258;12.690;2023-04-24T07:55:51;12.90;99.90
19342;DHT22;9807;48.258;12.690;2023-04-24T07:58:17;13.10;99.90
19342;DHT22;9807;48.258;12.690;2023-04-24T08:00:43;12.90;99.90
19342;DHT22;9807;48.258;12.690;2023-04-24T08:03:12;12.90;99.90
19342;DHT22;9807;48.258;12.690;2023-04-24T08:05:38;12.80;99.90
19342;DHT22;9807;48.258;12.690;2023-04-24T08:08:05;12.80;99.90
19342;DHT22;9807;48.258;12.690;2023-04-24T08:10:42;12.80;99.90
19342;DHT22;9807;48.258;12.690;2023-04-24T08:13:08;12.40;99.90
19342;DHT22;9807;48.258;12.690;2023-04-24T08:15:34;12.50;99.90
19342;DHT22;9807;48.258;12.690;2023-04-24T08:18:00;12.40;99.90
19342;DHT22;9807;48.258;12.690;2023-04-24T08:20:32;12.40;99.90
19342;DHT22;9807;48.258;12.690;2023-04-24T08:23:00;12.40;99.90
19342;DHT22;9807;48.258;12.690;2023-04-24T08:25:26;12.60;99.90
19342;DHT22;9807;48.258;12.690;2023-04-24T08:27:52;12.60;99.90
19342;DHT22;9807;48.258;12.690;2023-04-24T08:30:24;12.70;99.90
19342;DHT22;9807;48.258;12.690;2023-04-24T08:32:50;12.50;99.90
19342;DHT22;9807;48.258;12.690;2023-04-24T08:35:22;12.40;99.90
19342;DHT22;9807;48.258;12.690;2023-04-24T08:37:52;12.30;99.90
19342;DHT22;9807;48.258;12.690;2023-04-24T08:40:23;12.40;99.90
19342;DHT22;9807;48.258;12.690;2023-04-24T08:42:54;12.50;99.90
19342;DHT22;9807;48.258;12.690;2023-04-24T08:45:21;12.60;99.90
19342;DHT22;9807;48.258;12.690;2023-04-24T08:47:47;12.70;99.90
19342;DHT22;9807;48.258;12.690;2023-04-24T08:50:14;12.80;99.90
19342;DHT22;9807;48.258;12.690;2023-04-24T08:52:42;12.80;99.90
19342;DHT22;9807;48.258;12.690;2023-04-24T08:55:08;12.90;99.90
19342;DHT22;9807;48.258;12.690;2023-04-24T08:57:35;12.80;99.90
19342;DHT22;9807;48.258;12.690;2023-04-24T09:00:01;12.80;99.90
19342;DHT22;9807;48.258;12.690;2023-04-24T09:02:28;12.80;99.90
19342;DHT22;9807;48.258;12.690;2023-04-24T09:04:55;12.90;99.90
19342;DHT22;9807;48.258;12.690;2023-04-24T09:07:23;13.00;99.90
19342;DHT22;9807;48.258;12.690;2023-04-24T09:09:51;13.30;99.90
19342;DHT22;9807;48.258;12.690;2023-04-24T09:12:17;13.40;99.90
19342;DHT22;9807;48.258;12.690;2023-04-24T09:14:45;13.60;99.90
19342;DHT22;9807;48.258;12.690;2023-04-24T09:17:11;13.80;99.90
19342;DHT22;9807;48.258;12.690;2023-04-24T09:19:37;13.90;99.90
19342;DHT22;9807;48.258;12.690;2023-04-24T09:22:09;14.00;99.90
19342;DHT22;9807;48.258;12.690;2023-04-24T09:24:36;14.10;99.90
19342;DHT22;9807;48.258;12.690;2023-04-24T09:27:02;14.00;99.90
19342;DHT22;9807;48.258;12.690;2023-04-24T09:29:29;13.90;99.90
19342;DHT22;9807;48.258;12.690;2023-04-24T09:31:55;13.80;99.90
19342;DHT22;9807;48.258;12.690;2023-04-24T09:34:23;13.80;99.90
19342;DHT22;9807;48.258;12.690;2023-04-24T09:36:49;13.80;99.90
19342;DHT22;9807;48.258;12.690;2023-04-24T09:39:16;13.70;99.90
19342;DHT22;9807;48.258;12.690;2023-04-24T09:41:54;13.50;99.90
19342;DHT22;9807;48.258;12.690;2023-04-24T09:44:26;13.40;99.90
19342;DHT22;9807;48.258;12.690;2023-04-24T09:46:54;13.50;99.90
19342;DHT22;9807;48.258;12.690;2023-04-24T09:49:23;13.30;99.90
19342;DHT22;9807;48.258;12.690;2023-04-24T09:52:05;13.10;99.90
19342;DHT22;9807;48.258;12.690;2023-04-24T09:54:31;13.00;99.90
19342;DHT22;9807;48.258;12.690;2023-04-24T09:56:57;13.00;99.90
19342;DHT22;9807;48.258;12.690;2023-04-24T09:59:23;13.00;99.90
19342;DHT22;9807;48.258;12.690;2023-04-24T10:01:51;13.00;99.90
19342;DHT22;9807;48.258;12.690;2023-04-24T10:04:18;13.00;99.90
19342;DHT22;9807;48.258;12.690;2023-04-24T10:06:45;13.00;99.90
19342;DHT22;9807;48.258;12.690;2023-04-24T10:09:11;12.80;99.90
19342;DHT22;9807;48.258;12.690;2023-04-24T10:11:46;12.70;99.90
19342;DHT22;9807;48.258;12.690;2023-04-24T10:14:23;12.30;99.90
19342;DHT22;9807;48.258;12.690;2023-04-24T10:16:53;11.80;99.90
19342;DHT22;9807;48.258;12.690;2023-04-24T10:19:19;11.50;99.90
19342;DHT22;9807;48.258;12.690;2023-04-24T10:21:45;11.30;99.90
19342;DHT22;9807;48.258;12.690;2023-04-24T10:24:16;11.50;99.90
19342;DHT22;9807;48.258;12.690;2023-04-24T10:26:45;11.50;99.90
19342;DHT22;9807;48.258;12.690;2023-04-24T10:29:12;11.50;99.90
19342;DHT22;9807;48.258;12.690;2023-04-24T10:31:38;11.50;99.90
19342;DHT22;9807;48.258;12.690;2023-04-24T10:34:05;11.50;99.90
19342;DHT22;9807;48.258;12.690;2023-04-24T10:36:34;11.50;99.90
19342;DHT22;9807;48.258;12.690;2023-04-24T10:39:02;11.60;99.90
19342;DHT22;9807;48.258;12.690;2023-04-24T10:41:30;11.70;99.90
19342;DHT22;9807;48.258;12.690;2023-04-24T10:44:13;11.90;99.90
19342;DHT22;9807;48.258;12.690;2023-04-24T10:46:43;12.20;99.90
19342;DHT22;9807;48.258;12.690;2023-04-24T10:49:09;12.40;99.90
19342;DHT22;9807;48.258;12.690;2023-04-24T10:51:48;12.50;99.90
19342;DHT22;9807;48.258;12.690;2023-04-24T10:57:28;12.70;99.90
19342;DHT22;9807;48.258;12.690;2023-04-24T11:00:18;12.70;99.90
19342;DHT22;9807;48.258;12.690;2023-04-24T11:02:47;12.80;99.90
19342;DHT22;9807;48.258;12.690;2023-04-24T11:05:19;12.80;99.90
19342;DHT22;9807;48.258;12.690;2023-04-24T11:08:14;12.90;99.90
19342;DHT22;9807;48.258;12.690;2023-04-24T11:11:20;13.10;99.90
19342;DHT22;9807;48.258;12.690;2023-04-24T11:17:02;13.20;99.90
19342;DHT22;9807;48.258;12.690;2023-04-24T11:19:28;13.30;99.90
19342;DHT22;9807;48.258;12.690;2023-04-24T11:22:01;13.30;99.90
19342;DHT22;9807;48.258;12.690;2023-04-24T11:27:12;13.20;99.90
19342;DHT22;9807;48.258;12.690;2023-04-24T11:34:51;13.40;99.90
19342;DHT22;9807;48.258;12.690;2023-04-24T11:37:27;13.70;99.90
19342;DHT22;9807;48.258;12.690;2023-04-24T11:39:56;13.90;99.90
19342;DHT22;9807;48.258;12.690;2023-04-24T11:42:22;13.90;99.90
19342;DHT22;9807;48.258;12.690;2023-04-24T11:44:51;13.90;99.90
19342;DHT22;9807;48.258;12.690;2023-04-24T11:47:17;14.00;99.90
19342;DHT22;9807;48.258;12.690;2023-04-24T11:49:43;13.80;99.90
19342;DHT22;9807;48.258;12.690;2023-04-24T11:52:15;13.70;99.90
19342;DHT22;9807;48.258;12.690;2023-04-24T11:54:50;13.60;99.90
19342;DHT22;9807;48.258;12.690;2023-04-24T11:57:18;13.50;99.90
19342;DHT22;9807;48.258;12.690;2023-04-24T11:59:44;13.70;99.90
19342;DHT22;9807;48.258;12.690;2023-04-24T12:02:23;13.60;99.90
19342;DHT22;9807;48.258;12.690;2023-04-24T12:04:50;13.60;99.90
19342;DHT22;9807;48.258;12.690;2023-04-24T12:07:15;13.70;99.90
19342;DHT22;9807;48.258;12.690;2023-04-24T12:09:46;13.80;99.90
19342;DHT22;9807;48.258;12.690;2023-04-24T12:12:13;13.80;99.90
19342;DHT22;9807;48.258;12.690;2023-04-24T12:14:50;13.80;99.90
19342;DHT22;9807;48.258;12.690;2023-04-24T12:17:17;13.90;99.90
19342;DHT22;9807;48.258;12.690;2023-04-24T12:19:48;13.90;99.90
19342;DHT22;9807;48.258;12.690;2023-04-24T12:22:16;13.90;99.90
19342;DHT22;9807;48.258;12.690;2023-04-24T12:25:17;13.80;99.90
19342;DHT22;9807;48.258;12.690;2023-04-24T12:27:46;13.80;99.90
19342;DHT22;9807;48.258;12.690;2023-04-24T12:30:19;13.60;99.90
19342;DHT22;9807;48.258;12.690;2023-04-24T12:32:51;13.30;99.90
19342;DHT22;9807;48.258;12.690;2023-04-24T12:35:22;13.00;99.90
19342;DHT22;9807;48.258;12.690;2023-04-24T12:37:51;12.50;99.90
19342;DHT22;9807;48.258;12.690;2023-04-24T12:40:17;12.00;99.90
19342;DHT22;9807;48.258;12.690;2023-04-24T12:42:45;11.90;99.90
19342;DHT22;9807;48.258;12.690;2023-04-24T12:45:21;11.50;99.90
19342;DHT22;9807;48.258;12.690;2023-04-24T12:47:50;11.30;99.90
19342;DHT22;9807;48.258;12.690;2023-04-24T12:50:16;11.50;99.90
19342;DHT22;9807;48.258;12.690;2023-04-24T12:52:57;11.60;99.90
19342;DHT22;9807;48.258;12.690;2023-04-24T12:55:27;11.80;99.90
19342;DHT22;9807;48.258;12.690;2023-04-24T12:57:53;11.90;99.90
19342;DHT22;9807;48.258;12.690;2023-04-24T13:00:32;12.10;99.90
19342;DHT22;9807;48.258;12.690;2023-04-24T13:03:03;12.10;99.90
19342;DHT22;9807;48.258;12.690;2023-04-24T13:05:29;12.10;99.90
19342;DHT22;9807;48.258;12.690;2023-04-24T13:07:57;11.90;99.90
19342;DHT22;9807;48.258;12.690;2023-04-24T13:10:28;11.90;99.90
19342;DHT22;9807;48.258;12.690;2023-04-24T13:13:09;11.90;99.90
19342;DHT22;9807;48.258;12.690;2023-04-24T13:15:35;11.90;99.90
19342;DHT22;9807;48.258;12.690;2023-04-24T13:18:01;12.00;99.90
19342;DHT22;9807;48.258;12.690;2023-04-24T13:20:27;12.00;99.90
19342;DHT22;9807;48.258;12.690;2023-04-24T13:23:00;12.10;99.90
19342;DHT22;9807;48.258;12.690;2023-04-24T13:25:26;12.20;99.90
19342;DHT22;9807;48.258;12.690;2023-04-24T13:27:54;12.30;99.90
19342;DHT22;9807;48.258;12.690;2023-04-24T13:30:20;12.40;99.90
19342;DHT22;9807;48.258;12.690;2023-04-24T13:32:46;12.60;99.90
19342;DHT22;9807;48.258;12.690;2023-04-24T13:35:14;12.80;99.90
19342;DHT22;9807;48.258;12.690;2023-04-24T13:37:40;13.00;99.90
19342;DHT22;9807;48.258;12.690;2023-04-24T13:40:06;13.10;99.90
19342;DHT22;9807;48.258;12.690;2023-04-24T13:42:32;13.30;99.90
19342;DHT22;9807;48.258;12.690;2023-04-24T13:44:59;13.40;99.90
19342;DHT22;9807;48.258;12.690;2023-04-24T13:47:24;13.50;99.90
19342;DHT22;9807;48.258;12.690;2023-04-24T13:49:50;13.60;99.90
19342;DHT22;9807;48.258;12.690;2023-04-24T13:52:19;13.70;99.90
19342;DHT22;9807;48.258;12.690;2023-04-24T13:54:45;13.70;99.90
19342;DHT22;9807;48.258;12.690;2023-04-24T13:57:10;13.90;99.90
19342;DHT22;9807;48.258;12.690;2023-04-24T13:59:39;14.10;99.90
19342;DHT22;9807;48.258;12.690;2023-04-24T14:02:05;14.20;99.90
19342;DHT22;9807;48.258;12.690;2023-04-24T14:04:30;14.30;99.90
19342;DHT22;9807;48.258;12.690;2023-04-24T14:06:56;14.30;99.90
19342;DHT22;9807;48.258;12.690;2023-04-24T14:09:22;14.10;99.90
19342;DHT22;9807;48.258;12.690;2023-04-24T14:11:48;14.10;99.90
19342;DHT22;9807;48.258;12.690;2023-04-24T14:14:13;13.90;99.90
19342;DHT22;9807;48.258;12.690;2023-04-24T14:16:39;13.90;99.90
19342;DHT22;9807;48.258;12.690;2023-04-24T14:19:05;13.90;99.90
19342;DHT22;9807;48.258;12.690;2023-04-24T14:21:32;14.00;99.90
19342;DHT22;9807;48.258;12.690;2023-04-24T14:24:00;14.00;99.90
19342;DHT22;9807;48.258;12.690;2023-04-24T14:26:26;13.90;99.90
19342;DHT22;9807;48.258;12.690;2023-04-24T14:28:52;13.90;99.90
19342;DHT22;9807;48.258;12.690;2023-04-24T14:31:19;13.90;99.90
19342;DHT22;9807;48.258;12.690;2023-04-24T14:33:44;14.00;99.90
19342;DHT22;9807;48.258;12.690;2023-04-24T14:36:11;14.10;99.90
19342;DHT22;9807;48.258;12.690;2023-04-24T14:38:36;14.10;99.90
19342;DHT22;9807;48.258;12.690;2023-04-24T14:41:02;14.10;99.90
19342;DHT22;9807;48.258;12.690;2023-04-24T14:43:34;14.10;99.90
19342;DHT22;9807;48.258;12.690;2023-04-24T14:46:00;14.00;99.90
19342;DHT22;9807;48.258;12.690;2023-04-24T14:48:26;14.00;99.90
19342;DHT22;9807;48.258;12.690;2023-04-24T14:50:52;14.00;99.90
19342;DHT22;9807;48.258;12.690;2023-04-24T14:53:17;14.00;99.90
19342;DHT22;9807;48.258;12.690;2023-04-24T14:55:50;13.90;99.90
19342;DHT22;9807;48.258;12.690;2023-04-24T14:58:16;13.90;99.90
19342;DHT22;9807;48.258;12.690;2023-04-24T15:00:45;13.90;99.90
19342;DHT22;9807;48.258;12.690;2023-04-24T15:03:10;13.90;99.90
19342;DHT22;9807;48.258;12.690;2023-04-24T15:05:36;13.90;99.90
19342;DHT22;9807;48.258;12.690;2023-04-24T15:08:05;13.90;99.90
19342;DHT22;9807;48.258;12.690;2023-04-24T15:10:31;13.90;99.90
19342;DHT22;9807;48.258;12.690;2023-04-24T15:12:56;13.80;99.90
19342;DHT22;9807;48.258;12.690;2023-04-24T15:15:22;13.90;99.90
19342;DHT22;9807;48.258;12.690;2023-04-24T15:17:48;13.80;99.90
19342;DHT22;9807;48.258;12.690;2023-04-24T15:20:13;13.70;99.90
19342;DHT22;9807;48.258;12.690;2023-04-24T15:22:39;13.70;99.90
19342;DHT22;9807;48.258;12.690;2023-04-24T15:25:05;13.70;99.90
19342;DHT22;9807;48.258;12.690;2023-04-24T15:27:42;13.60;99.90
19342;DHT22;9807;48.258;12.690;2023-04-24T15:30:09;13.40;99.90
19342;DHT22;9807;48.258;12.690;2023-04-24T15:32:35;13.30;99.90
19342;DHT22;9807;48.258;12.690;2023-04-24T15:35:01;13.40;99.90
19342;DHT22;9807;48.258;12.690;2023-04-24T15:37:27;13.40;99.90
19342;DHT22;9807;48.258;12.690;2023-04-24T15:39:53;13.40;99.90
19342;DHT22;9807;48.258;12.690;2023-04-24T15:42:19;13.30;99.90
19342;DHT22;9807;48.258;12.690;2023-04-24T15:44:45;13.30;99.90
19342;DHT22;9807;48.258;12.690;2023-04-24T15:47:10;13.40;99.90
19342;DHT22;9807;48.258;12.690;2023-04-24T15:49:38;13.40;99.90